Time;durP1;ratioP1;P1;durP2;ratioP2;P2;SDS_P1;SDS_P2;PMS_P1;PMS_P2;Temp;Humidity;BMP_temperature;BMP_pressure;BME280_temperature;BME280_humidity;BME280_pressure;Samples;Min_cycle;Max_cycle;Signal;HPM_P1;HPM_P2
2023/01/18 00:02:18;;;;;;;;;;;;;;;;;;5020251;28;19924;-66
2023/01/18 00:04:44;;;;;;;;;;;;;;;;;;5038227;28;20197;-65
2023/01/18 00:07:10;;;;;;;;;;;;;;;;;;5049931;28;19920;-64
2023/01/18 00:09:36;;;;;;;;;;;;;;;;;;5037883;28;19924;-67
2023/01/18 00:12:02;;;;;;;;;;;;;;;;;;5049272;28;19931;-64
2023/01/18 00:14:28;;;;;;;;;;;;;;;;;;5052894;28;20034;-67
2023/01/18 00:16:54;;;;;;;;;;;;;;;;;;5050701;28;19985;-64
2023/01/18 00:19:20;;;;;;;;;;;;;;;;;;5057778;28;20006;-67
2023/01/18 00:21:45;;;;;;;;;;;;;;;;;;5049111;28;19931;-64
2023/01/18 00:24:13;;;;;;;;;;;;;;;;;;5052769;27;19927;-66
2023/01/18 00:26:39;;;;;;;;;;;;;;;;;;5047435;28;19925;-65
2023/01/18 00:29:05;;;;;;;;;;;;;;;;;;5051139;28;20368;-64
2023/01/18 00:31:31;;;;;;;;;;;;;;;;;;5048624;28;19928;-65
2023/01/18 00:33:57;;;;;;;;;;;;;;;;;;5048392;28;19931;-66
2023/01/18 00:36:23;;;;;;;;;;;;;;;;;;5042940;28;20296;-67
2023/01/18 00:38:52;;;;;;;;;;;;;;;;;;5031183;28;20314;-66
2023/01/18 00:41:18;;;;;;;;;;;;;;;;;;5032219;28;19924;-66
2023/01/18 00:43:44;;;;;;;;;;;;;;;;;;5028971;28;20457;-66
2023/01/18 00:46:10;;;;;;;;;;;;;;;;;;5020323;28;19924;-66
2023/01/18 00:48:36;;;;;;;;;;;;;;;;;;5032414;28;19964;-64
2023/01/18 00:51:01;;;;;;;;;;;;;;;;;;5047180;28;19925;-66
2023/01/18 00:53:27;;;;;;;;;;;;;;;;;;5022171;28;19921;-70
2023/01/18 00:55:53;;;;;;;;;;;;;;;;;;5033324;28;20452;-67
2023/01/18 00:58:19;;;;;;;;;;;;;;;;;;5033178;28;19974;-65
2023/01/18 01:00:45;;;;;;;;;;;;;;;;;;5034707;28;20673;-67
2023/01/18 01:03:14;;;;;;;;;;;;;;;;;;5037346;28;19924;-63
2023/01/18 01:08:24;;;;;;;;;;;;;;;;;;5031775;28;19943;-66
2023/01/18 01:10:50;;;;;;;;;;;;;;;;;;5055608;28;20290;-65
2023/01/18 01:27:00;;;;;;;;;;;;;;;;;;5037018;28;19930;-65
2023/01/18 01:29:25;;;;;;;;;;;;;;;;;;5039234;28;19924;-67
2023/01/18 01:31:51;;;;;;;;;;;;;;;;;;4987416;28;1750468;-67
2023/01/18 01:34:18;;;;;;;;;;;;;;;;;;5029996;28;19965;-65
2023/01/18 01:36:43;;;;;;;;;;;;;;;;;;5048090;28;19962;-68
2023/01/18 01:39:09;;;;;;;;;;;;;;;;;;5039454;28;19954;-64
2023/01/18 01:41:35;;;;;;;;;;;;;;;;;;5034489;28;19924;-67
2023/01/18 01:44:05;;;;;;;;;;;;;;;;;;5039051;28;19970;-67
2023/01/18 01:46:31;;;;;;;;;;;;;;;;;;5032607;28;19967;-68
2023/01/18 01:48:56;;;;;;;;;;;;;;;;;;5033426;28;19925;-69
2023/01/18 01:51:22;;;;;;;;;;;;;;;;;;5043588;28;19924;-65
2023/01/18 01:53:48;;;;;;;;;;;;;;;;;;5046187;28;20458;-66
2023/01/18 01:56:14;;;;;;;;;;;;;;;;;;5044494;28;19965;-66
2023/01/18 01:58:40;;;;;;;;;;;;;;;;;;5035871;28;19931;-68
2023/01/18 02:01:07;;;;;;;;;;;;;;;;;;5045896;28;20446;-66
2023/01/18 02:03:33;;;;;;;;;;;;;;;;;;5026652;28;19924;-66
2023/01/18 02:05:59;;;;;;;;;;;;;;;;;;5042699;28;20274;-65
2023/01/18 02:08:25;;;;;;;;;;;;;;;;;;5053303;28;19927;-66
2023/01/18 02:10:51;;;;;;;;;;;;;;;;;;5033900;28;20023;-68
2023/01/18 02:13:17;;;;;;;;;;;;;;;;;;5041045;28;19935;-68
2023/01/18 02:15:43;;;;;;;;;;;;;;;;;;5052022;28;20325;-64
2023/01/18 02:18:08;;;;;;;;;;;;;;;;;;5056682;28;19931;-65
2023/01/18 02:20:36;;;;;;;;;;;;;;;;;;5032334;28;19970;-67
2023/01/18 02:23:02;;;;;;;;;;;;;;;;;;5031419;28;21201;-65
2023/01/18 02:25:28;;;;;;;;;;;;;;;;;;5018291;28;20396;-64
2023/01/18 02:27:54;;;;;;;;;;;;;;;;;;5025313;28;20274;-67
2023/01/18 02:30:20;;;;;;;;;;;;;;;;;;5030763;28;19931;-66
2023/01/18 02:32:46;;;;;;;;;;;;;;;;;;5045256;28;20223;-66
2023/01/18 02:35:12;;;;;;;;;;;;;;;;;;5049204;28;20024;-65
2023/01/18 02:37:38;;;;;;;;;;;;;;;;;;5041170;28;19920;-66
2023/01/18 02:40:04;;;;;;;;;;;;;;;;;;5044265;28;20004;-69
2023/01/18 02:47:59;;;;;;;;;;;;;;;;;;5054123;28;20826;-67
2023/01/18 02:50:25;;;;;;;;;;;;;;;;;;5030974;28;20574;-68
2023/01/18 02:52:52;;;;;;;;;;;;;;;;;;5033024;28;20319;-64
2023/01/18 02:55:18;;;;;;;;;;;;;;;;;;5033152;28;19958;-68
2023/01/18 02:57:44;;;;;;;;;;;;;;;;;;5041417;28;20277;-68
2023/01/18 03:00:10;;;;;;;;;;;;;;;;;;5046688;28;19970;-68
2023/01/18 03:02:36;;;;;;;;;;;;;;;;;;5025671;28;20129;-67
2023/01/18 03:05:02;;;;;;;;;;;;;;;;;;5046421;28;19920;-65
2023/01/18 03:07:28;;;;;;;;;;;;;;;;;;5052403;28;19971;-66
2023/01/18 03:09:54;;;;;;;;;;;;;;;;;;5040110;28;19931;-67
2023/01/18 03:12:20;;;;;;;;;;;;;;;;;;5048197;28;19935;-65
2023/01/18 03:14:46;;;;;;;;;;;;;;;;;;5057527;28;19916;-66
2023/01/18 03:17:11;;;;;;;;;;;;;;;;;;5058913;28;20334;-68
2023/01/18 03:23:36;;;;;;;;;;;;;;;;;;5027758;28;20429;-68
2023/01/18 03:25:08;;;;;;;;;;;;;;;;;;5041435;28;20416;-64
2023/01/18 03:35:48;;;;;;;;;;;;;;;;;;5033387;28;20347;-67
2023/01/18 03:38:13;;;;;;;;;;;;;;;;;;5034291;28;19924;-66
2023/01/18 03:40:39;;;;;;;;;;;;;;;;;;5030345;28;20567;-67
2023/01/18 03:43:05;;;;;;;;;;;;;;;;;;5040109;28;21049;-68
2023/01/18 03:45:31;;;;;;;;;;;;;;;;;;5031418;28;19970;-67
2023/01/18 03:47:57;;;;;;;;;;;;;;;;;;5039887;28;20343;-64
2023/01/18 03:50:23;;;;;;;;;;;;;;;;;;5034425;28;19924;-67
2023/01/18 03:52:49;;;;;;;;;;;;;;;;;;5019639;28;19986;-63
2023/01/18 03:55:15;;;;;;;;;;;;;;;;;;5025820;28;20864;-65
2023/01/18 03:57:41;;;;;;;;;;;;;;;;;;5038906;28;20151;-67
2023/01/18 04:00:07;;;;;;;;;;;;;;;;;;5039516;28;19924;-67
2023/01/18 04:02:33;;;;;;;;;;;;;;;;;;5027526;28;19931;-66
2023/01/18 04:05:02;;;;;;;;;;;;;;;;;;5033786;28;19925;-67
2023/01/18 04:07:28;;;;;;;;;;;;;;;;;;5032883;28;19939;-67
2023/01/18 04:09:54;;;;;;;;;;;;;;;;;;5035643;28;19930;-64
2023/01/18 04:12:20;;;;;;;;;;;;;;;;;;5046316;28;19930;-66
2023/01/18 04:14:46;;;;;;;;;;;;;;;;;;5034346;28;19924;-66
2023/01/18 04:17:12;;;;;;;;;;;;;;;;;;5028392;28;20333;-64
2023/01/18 04:19:39;;;;;;;;;;;;;;;;;;5027350;28;19925;-68
2023/01/18 04:22:05;;;;;;;;;;;;;;;;;;5029588;28;19920;-69
2023/01/18 04:24:31;;;;;;;;;;;;;;;;;;5041834;28;19977;-67
2023/01/18 04:26:56;;;;;;;;;;;;;;;;;;5019982;28;19924;-68
2023/01/18 04:29:22;;;;;;;;;;;;;;;;;;5046837;28;20232;-67
2023/01/18 04:31:48;;;;;;;;;;;;;;;;;;5051794;28;20678;-67
2023/01/18 04:34:14;;;;;;;;;;;;;;;;;;5052096;28;19924;-66
2023/01/18 04:36:40;;;;;;;;;;;;;;;;;;5056550;28;19923;-64
2023/01/18 04:39:06;;;;;;;;;;;;;;;;;;5051973;28;20430;-66
2023/01/18 04:41:32;;;;;;;;;;;;;;;;;;5047132;28;20006;-67
2023/01/18 04:43:58;;;;;;;;;;;;;;;;;;5051038;28;19930;-66
2023/01/18 04:46:24;;;;;;;;;;;;;;;;;;5041402;28;19955;-68
2023/01/18 04:48:50;;;;;;;;;;;;;;;;;;5043372;28;19924;-67
2023/01/18 04:51:16;;;;;;;;;;;;;;;;;;5052389;28;19924;-66
2023/01/18 04:53:42;;;;;;;;;;;;;;;;;;5050691;28;19934;-68
2023/01/18 04:56:08;;;;;;;;;;;;;;;;;;5042612;28;20316;-66
2023/01/18 04:58:33;;;;;;;;;;;;;;;;;;5055382;28;19946;-64
2023/01/18 05:00:59;;;;;;;;;;;;;;;;;;5034164;28;19920;-65
2023/01/18 05:03:25;;;;;;;;;;;;;;;;;;5054715;28;20396;-68
2023/01/18 05:05:51;;;;;;;;;;;;;;;;;;5050916;28;19925;-66
2023/01/18 05:08:17;;;;;;;;;;;;;;;;;;5042126;28;19928;-66
2023/01/18 05:10:43;;;;;;;;;;;;;;;;;;5058921;28;19925;-67
2023/01/18 05:13:09;;;;;;;;;;;;;;;;;;5051994;28;20359;-66
2023/01/18 05:15:35;;;;;;;;;;;;;;;;;;5057140;28;19924;-68
2023/01/18 05:18:01;;;;;;;;;;;;;;;;;;5046630;28;19924;-68
2023/01/18 05:20:27;;;;;;;;;;;;;;;;;;5042606;28;19920;-67
2023/01/18 05:22:53;;;;;;;;;;;;;;;;;;5046182;28;21649;-68
2023/01/18 05:25:19;;;;;;;;;;;;;;;;;;5043841;28;19936;-66
2023/01/18 05:27:44;;;;;;;;;;;;;;;;;;5027908;28;20613;-67
2023/01/18 05:30:10;;;;;;;;;;;;;;;;;;5027253;28;19928;-64
2023/01/18 05:32:36;;;;;;;;;;;;;;;;;;5035116;28;19924;-66
2023/01/18 05:35:02;;;;;;;;;;;;;;;;;;5006125;28;20766;-66
2023/01/18 05:37:28;;;;;;;;;;;;;;;;;;5024017;28;20546;-68
2023/01/18 05:39:54;;;;;;;;;;;;;;;;;;5016426;28;19926;-68
2023/01/18 05:42:20;;;;;;;;;;;;;;;;;;5036826;28;19970;-67
2023/01/18 05:44:45;;;;;;;;;;;;;;;;;;5025536;28;20221;-67
2023/01/18 05:47:11;;;;;;;;;;;;;;;;;;5037171;28;20089;-65
2023/01/18 05:49:37;;;;;;;;;;;;;;;;;;5030621;27;20017;-67
2023/01/18 05:52:03;;;;;;;;;;;;;;;;;;5025454;28;20317;-67
2023/01/18 05:54:29;;;;;;;;;;;;;;;;;;5022670;28;19951;-67
2023/01/18 05:56:55;;;;;;;;;;;;;;;;;;5022426;28;19920;-68
2023/01/18 05:59:21;;;;;;;;;;;;;;;;;;5024022;28;20746;-68
2023/01/18 06:01:47;;;;;;;;;;;;;;;;;;5012076;28;19924;-65
2023/01/18 06:04:12;;;;;;;;;;;;;;;;;;5018502;28;19928;-67
2023/01/18 06:06:38;;;;;;;;;;;;;;;;;;4998811;28;20291;-67
2023/01/18 06:09:05;;;;;;;;;;;;;;;;;;5013476;28;19931;-69
2023/01/18 06:11:31;;;;;;;;;;;;;;;;;;5023712;28;19995;-64
2023/01/18 06:13:56;;;;;;;;;;;;;;;;;;5022268;28;19951;-68
2023/01/18 06:16:23;;;;;;;;;;;;;;;;;;5024508;28;19924;-66
2023/01/18 06:18:49;;;;;;;;;;;;;;;;;;5045018;28;20410;-65
2023/01/18 06:21:16;;;;;;;;;;;;;;;;;;5042992;28;20225;-65
2023/01/18 06:23:42;;;;;;;;;;;;;;;;;;5034170;28;20573;-64
2023/01/18 06:26:08;;;;;;;;;;;;;;;;;;5054278;28;19924;-65
2023/01/18 06:28:34;;;;;;;;;;;;;;;;;;5038621;28;20638;-66
2023/01/18 06:31:03;;;;;;;;;;;;;;;;;;5042543;28;19982;-65
2023/01/18 06:33:29;;;;;;;;;;;;;;;;;;5029241;28;19982;-68
2023/01/18 06:35:55;;;;;;;;;;;;;;;;;;5045484;28;20484;-67
2023/01/18 06:38:21;;;;;;;;;;;;;;;;;;5048626;28;20015;-68
2023/01/18 06:40:47;;;;;;;;;;;;;;;;;;5052554;28;20248;-63
2023/01/18 06:43:12;;;;;;;;;;;;;;;;;;5060366;28;19916;-64
2023/01/18 06:45:38;;;;;;;;;;;;;;;;;;5063359;28;19986;-66
2023/01/18 06:48:04;;;;;;;;;;;;;;;;;;5064530;28;20257;-64
2023/01/18 06:50:30;;;;;;;;;;;;;;;;;;5047722;28;19920;-69
2023/01/18 06:52:56;;;;;;;;;;;;;;;;;;5053809;28;19928;-67
2023/01/18 06:55:22;;;;;;;;;;;;;;;;;;5052409;28;19925;-65
2023/01/18 06:57:48;;;;;;;;;;;;;;;;;;5057168;28;20383;-65
2023/01/18 07:00:15;;;;;;;;;;;;;;;;;;5049706;28;19928;-66
2023/01/18 07:02:41;;;;;;;;;;;;;;;;;;5062359;28;19947;-66
2023/01/18 07:05:07;;;;;;;;;;;;;;;;;;5061570;28;19999;-67
2023/01/18 07:07:33;;;;;;;;;;;;;;;;;;5060522;28;19967;-65
2023/01/18 07:09:58;;;;;;;;;;;;;;;;;;5062068;28;19920;-65
2023/01/18 07:12:24;;;;;;;;;;;;;;;;;;5066675;28;20378;-64
2023/01/18 07:14:50;;;;;;;;;;;;;;;;;;5060297;28;20074;-63
2023/01/18 07:17:16;;;;;;;;;;;;;;;;;;5060978;28;19921;-66
2023/01/18 07:19:43;;;;;;;;;;;;;;;;;;5056293;28;20215;-65
2023/01/18 07:22:09;;;;;;;;;;;;;;;;;;5062017;28;19960;-65
2023/01/18 07:24:35;;;;;;;;;;;;;;;;;;5059694;28;20027;-65
2023/01/18 07:27:02;;;;;;;;;;;;;;;;;;5062360;28;19924;-66
2023/01/18 07:29:27;;;;;;;;;;;;;;;;;;5061734;28;20348;-66
2023/01/18 07:31:53;;;;;;;;;;;;;;;;;;5039158;28;19924;-65
2023/01/18 07:34:19;;;;;;;;;;;;;;;;;;5044643;28;19925;-67
2023/01/18 07:36:45;;;;;;;;;;;;;;;;;;5050362;28;19920;-67
2023/01/18 07:39:11;;;;;;;;;;;;;;;;;;5061743;28;20428;-65
2023/01/18 07:41:37;;;;;;;;;;;;;;;;;;5062710;28;19942;-65
2023/01/18 07:44:03;;;;;;;;;;;;;;;;;;5057872;28;19921;-66
2023/01/18 07:46:28;;;;;;;;;;;;;;;;;;5028401;28;19920;-64
2023/01/18 07:48:54;;;;;;;;;;;;;;;;;;5055724;28;19923;-66
2023/01/18 07:51:21;;;;;;;;;;;;;;;;;;5058689;28;19924;-67
2023/01/18 07:53:47;;;;;;;;;;;;;;;;;;5055645;28;19928;-67
2023/01/18 07:56:13;;;;;;;;;;;;;;;;;;5065930;28;19967;-64
2023/01/18 07:58:38;;;;;;;;;;;;;;;;;;5058043;28;20025;-64
2023/01/18 08:01:04;;;;;;;;;;;;;;;;;;5054240;28;19956;-63
2023/01/18 08:03:30;;;;;;;;;;;;;;;;;;5056604;28;19939;-66
2023/01/18 08:05:56;;;;;;;;;;;;;;;;;;5062014;28;19963;-63
2023/01/18 08:08:22;;;;;;;;;;;;;;;;;;5059832;28;20653;-64
2023/01/18 08:10:48;;;;;;;;;;;;;;;;;;5053448;28;19955;-66
2023/01/18 08:13:14;;;;;;;;;;;;;;;;;;5052303;28;19924;-66
2023/01/18 08:15:39;;;;;;;;;;;;;;;;;;5052927;28;19924;-67
2023/01/18 08:18:05;;;;;;;;;;;;;;;;;;5057970;28;19928;-67
2023/01/18 08:20:31;;;;;;;;;;;;;;;;;;5050052;28;19920;-67
2023/01/18 08:22:57;;;;;;;;;;;;;;;;;;5049012;28;19966;-66
2023/01/18 08:25:23;;;;;;;;;;;;;;;;;;5048562;28;19970;-68
2023/01/18 08:27:49;;;;;;;;;;;;;;;;;;5065744;28;20297;-64
2023/01/18 08:30:15;;;;;;;;;;;;;;;;;;5050506;28;20325;-65
2023/01/18 08:32:41;;;;;;;;;;;;;;;;;;5050782;28;19928;-64
2023/01/18 08:35:06;;;;;;;;;;;;;;;;;;5038550;28;20547;-66
2023/01/18 08:37:32;;;;;;;;;;;;;;;;;;5043418;28;19973;-68
2023/01/18 08:39:58;;;;;;;;;;;;;;;;;;5060256;28;19964;-67
2023/01/18 08:42:24;;;;;;;;;;;;;;;;;;5045001;28;19924;-64
2023/01/18 08:44:52;;;;;;;;;;;;;;;;;;5052204;28;20327;-67
2023/01/18 08:47:18;;;;;;;;;;;;;;;;;;5064312;28;19925;-66
2023/01/18 08:49:45;;;;;;;;;;;;;;;;;;5067937;28;19925;-64
2023/01/18 08:52:12;;;;;;;;;;;;;;;;;;5043514;28;19931;-67
2023/01/18 08:54:38;;;;;;;;;;;;;;;;;;5063428;28;20410;-64
2023/01/18 08:57:04;;;;;;;;;;;;;;;;;;5057920;28;19920;-66
2023/01/18 08:59:29;;;;;;;;;;;;;;;;;;5052777;28;19925;-65
2023/01/18 09:01:56;;;;;;;;;;;;;;;;;;5041254;28;19980;-65
2023/01/18 09:04:21;;;;;;;;;;;;;;;;;;5044570;28;19943;-67
2023/01/18 09:06:49;;;;;;;;;;;;;;;;;;5060840;28;19924;-65
2023/01/18 09:09:15;;;;;;;;;;;;;;;;;;5043740;28;20359;-65
2023/01/18 09:11:41;;;;;;;;;;;;;;;;;;5054051;28;19916;-66
2023/01/18 09:14:07;;;;;;;;;;;;;;;;;;5052235;28;20435;-68
2023/01/18 09:16:32;;;;;;;;;;;;;;;;;;5043864;28;20725;-67
2023/01/18 09:18:58;;;;;;;;;;;;;;;;;;5056486;28;20078;-65
2023/01/18 09:21:26;;;;;;;;;;;;;;;;;;5053683;28;19924;-67
2023/01/18 09:23:52;;;;;;;;;;;;;;;;;;5057131;28;20354;-67
2023/01/18 09:26:19;;;;;;;;;;;;;;;;;;5036409;28;19932;-65
2023/01/18 09:28:45;;;;;;;;;;;;;;;;;;5063138;28;19932;-65
2023/01/18 09:31:11;;;;;;;;;;;;;;;;;;5048008;28;19974;-67
2023/01/18 09:33:38;;;;;;;;;;;;;;;;;;5054383;28;19928;-67
2023/01/18 09:36:04;;;;;;;;;;;;;;;;;;5055581;28;20476;-63
2023/01/18 09:38:30;;;;;;;;;;;;;;;;;;5058036;28;20453;-66
2023/01/18 09:40:56;;;;;;;;;;;;;;;;;;5046405;28;19931;-67
2023/01/18 09:43:22;;;;;;;;;;;;;;;;;;5042648;28;19932;-66
2023/01/18 09:45:48;;;;;;;;;;;;;;;;;;5045951;28;19917;-66
2023/01/18 09:48:14;;;;;;;;;;;;;;;;;;5049224;28;20465;-66
2023/01/18 09:50:43;;;;;;;;;;;;;;;;;;5058082;28;19947;-66
2023/01/18 09:53:09;;;;;;;;;;;;;;;;;;5053008;28;19924;-68
2023/01/18 09:55:35;;;;;;;;;;;;;;;;;;5057025;28;19973;-66
2023/01/18 09:58:01;;;;;;;;;;;;;;;;;;5046603;28;21460;-67
2023/01/18 10:00:27;;;;;;;;;;;;;;;;;;5050276;28;19921;-66
2023/01/18 10:02:54;;;;;;;;;;;;;;;;;;5045724;28;19970;-65
2023/01/18 10:05:20;;;;;;;;;;;;;;;;;;5048537;28;20026;-66
2023/01/18 10:07:46;;;;;;;;;;;;;;;;;;5047382;28;19924;-68
2023/01/18 10:10:12;;;;;;;;;;;;;;;;;;5047736;28;20376;-66
2023/01/18 10:12:37;;;;;;;;;;;;;;;;;;5054389;28;20168;-66
2023/01/18 10:15:03;;;;;;;;;;;;;;;;;;5057245;28;19921;-68
2023/01/18 10:17:29;;;;;;;;;;;;;;;;;;5063895;28;19992;-67
2023/01/18 10:19:55;;;;;;;;;;;;;;;;;;5063298;28;20378;-66
2023/01/18 10:22:21;;;;;;;;;;;;;;;;;;5051382;28;20355;-66
2023/01/18 10:24:47;;;;;;;;;;;;;;;;;;5062396;28;20023;-67
2023/01/18 10:27:13;;;;;;;;;;;;;;;;;;5056908;28;20305;-65
2023/01/18 10:29:38;;;;;;;;;;;;;;;;;;5060667;28;19919;-66
2023/01/18 10:32:04;;;;;;;;;;;;;;;;;;5063852;28;19924;-67
2023/01/18 10:34:31;;;;;;;;;;;;;;;;;;5045051;28;20140;-66
2023/01/18 10:36:57;;;;;;;;;;;;;;;;;;5053949;28;20032;-66
2023/01/18 10:39:24;;;;;;;;;;;;;;;;;;5058773;28;20026;-66
2023/01/18 10:41:49;;;;;;;;;;;;;;;;;;5058967;28;20760;-66
2023/01/18 10:44:15;;;;;;;;;;;;;;;;;;5064153;28;19932;-65
2023/01/18 10:46:41;;;;;;;;;;;;;;;;;;5055321;28;19920;-65
2023/01/18 10:49:08;;;;;;;;;;;;;;;;;;5058896;28;20443;-68
2023/01/18 10:51:34;;;;;;;;;;;;;;;;;;5055517;28;19925;-68
2023/01/18 10:54:00;;;;;;;;;;;;;;;;;;5065896;28;20020;-67
2023/01/18 10:56:26;;;;;;;;;;;;;;;;;;5060010;28;19930;-68
2023/01/18 10:58:52;;;;;;;;;;;;;;;;;;5052258;28;20469;-66
2023/01/18 11:01:18;;;;;;;;;;;;;;;;;;5051051;28;20485;-67
2023/01/18 11:03:44;;;;;;;;;;;;;;;;;;5049575;28;20031;-67
2023/01/18 11:06:10;;;;;;;;;;;;;;;;;;5045886;28;19926;-65
2023/01/18 11:08:36;;;;;;;;;;;;;;;;;;5037975;28;19932;-67
2023/01/18 11:11:02;;;;;;;;;;;;;;;;;;5051481;28;19931;-67
2023/01/18 11:13:28;;;;;;;;;;;;;;;;;;5053137;28;19924;-69
2023/01/18 11:15:54;;;;;;;;;;;;;;;;;;5038851;28;20354;-67
2023/01/18 11:18:20;;;;;;;;;;;;;;;;;;5035915;28;19924;-66
2023/01/18 11:20:46;;;;;;;;;;;;;;;;;;5054611;28;19924;-68
2023/01/18 11:23:13;;;;;;;;;;;;;;;;;;5031868;28;19928;-67
2023/01/18 11:25:39;;;;;;;;;;;;;;;;;;5050116;28;20034;-67
2023/01/18 11:28:06;;;;;;;;;;;;;;;;;;5055556;28;20397;-68
2023/01/18 11:30:32;;;;;;;;;;;;;;;;;;5059877;28;20374;-66
2023/01/18 11:32:58;;;;;;;;;;;;;;;;;;5048657;28;20174;-65
2023/01/18 11:35:24;;;;;;;;;;;;;;;;;;5056505;28;19928;-65
2023/01/18 11:37:50;;;;;;;;;;;;;;;;;;5058304;28;19994;-67
2023/01/18 11:40:16;;;;;;;;;;;;;;;;;;5050388;28;19924;-65
2023/01/18 11:42:42;;;;;;;;;;;;;;;;;;5054972;28;19920;-65
2023/01/18 11:45:07;;;;;;;;;;;;;;;;;;5052437;28;19991;-65
2023/01/18 11:47:33;;;;;;;;;;;;;;;;;;5057276;28;19923;-65
2023/01/18 11:49:59;;;;;;;;;;;;;;;;;;5045092;28;19946;-68
2023/01/18 11:52:26;;;;;;;;;;;;;;;;;;5042554;28;20310;-65
2023/01/18 11:54:52;;;;;;;;;;;;;;;;;;5047823;28;19926;-68
2023/01/18 11:57:18;;;;;;;;;;;;;;;;;;5051534;28;20004;-66
2023/01/18 11:59:44;;;;;;;;;;;;;;;;;;5057242;27;20514;-67
2023/01/18 12:02:10;;;;;;;;;;;;;;;;;;5048703;28;19931;-66
2023/01/18 12:04:36;;;;;;;;;;;;;;;;;;5048589;28;19920;-66
2023/01/18 12:07:02;;;;;;;;;;;;;;;;;;5029454;28;20012;-67
2023/01/18 12:09:28;;;;;;;;;;;;;;;;;;5053885;28;20042;-68
2023/01/18 12:11:54;;;;;;;;;;;;;;;;;;5040792;28;19920;-66
2023/01/18 12:14:20;;;;;;;;;;;;;;;;;;5056981;28;19924;-66
2023/01/18 12:16:46;;;;;;;;;;;;;;;;;;5054213;28;20664;-66
2023/01/18 12:19:11;;;;;;;;;;;;;;;;;;5040974;28;19925;-68
2023/01/18 12:21:37;;;;;;;;;;;;;;;;;;5066168;28;19927;-65
2023/01/18 12:24:03;;;;;;;;;;;;;;;;;;5060278;28;19924;-69
2023/01/18 12:26:29;;;;;;;;;;;;;;;;;;5045904;28;20067;-68
2023/01/18 12:28:55;;;;;;;;;;;;;;;;;;5057604;28;19923;-66
2023/01/18 12:31:21;;;;;;;;;;;;;;;;;;5056140;28;19936;-67
2023/01/18 12:33:47;;;;;;;;;;;;;;;;;;5044358;28;20029;-66
2023/01/18 12:36:12;;;;;;;;;;;;;;;;;;5043173;28;19920;-67
2023/01/18 12:38:38;;;;;;;;;;;;;;;;;;5032472;28;20364;-64
2023/01/18 12:41:04;;;;;;;;;;;;;;;;;;5049653;27;19924;-66
2023/01/18 12:43:30;;;;;;;;;;;;;;;;;;5045387;27;19994;-67
2023/01/18 12:45:56;;;;;;;;;;;;;;;;;;5054183;28;20015;-67
2023/01/18 12:48:23;;;;;;;;;;;;;;;;;;5052133;28;19931;-66
2023/01/18 12:50:49;;;;;;;;;;;;;;;;;;5039888;28;19921;-67
2023/01/18 12:53:15;;;;;;;;;;;;;;;;;;5051370;28;19927;-66
2023/01/18 12:55:41;;;;;;;;;;;;;;;;;;5056265;28;19922;-69
2023/01/18 12:58:07;;;;;;;;;;;;;;;;;;5049860;28;19925;-67
2023/01/18 13:00:34;;;;;;;;;;;;;;;;;;5058039;28;19920;-68
2023/01/18 13:03:00;;;;;;;;;;;;;;;;;;5052494;28;19921;-66
2023/01/18 13:05:32;;;;;;;;;;;;;;;;;;5058554;28;19977;-68
2023/01/18 13:07:59;;;;;;;;;;;;;;;;;;5052011;28;19973;-67
2023/01/18 13:10:24;;;;;;;;;;;;;;;;;;5058072;28;20294;-66
2023/01/18 13:12:50;;;;;;;;;;;;;;;;;;5042085;28;19928;-67
2023/01/18 13:15:16;;;;;;;;;;;;;;;;;;5045377;28;19921;-68
2023/01/18 13:17:42;;;;;;;;;;;;;;;;;;5047085;28;19920;-68
2023/01/18 13:20:08;;;;;;;;;;;;;;;;;;5038037;28;20031;-67
2023/01/18 13:22:34;;;;;;;;;;;;;;;;;;5038434;28;19981;-68
2023/01/18 13:25:00;;;;;;;;;;;;;;;;;;5048736;27;19959;-67
2023/01/18 13:27:26;;;;;;;;;;;;;;;;;;5042579;28;19920;-67
2023/01/18 13:29:52;;;;;;;;;;;;;;;;;;5040945;28;20901;-67
2023/01/18 13:32:18;;;;;;;;;;;;;;;;;;5040335;28;19929;-68
2023/01/18 13:34:47;;;;;;;;;;;;;;;;;;5026937;28;20464;-66
2023/01/18 13:37:12;;;;;;;;;;;;;;;;;;5039705;28;19924;-68
2023/01/18 13:39:38;;;;;;;;;;;;;;;;;;5039957;28;19920;-66
2023/01/18 13:42:06;;;;;;;;;;;;;;;;;;5049005;27;19927;-68
2023/01/18 13:44:32;;;;;;;;;;;;;;;;;;5011202;28;20401;-68
2023/01/18 13:46:58;;;;;;;;;;;;;;;;;;5041798;28;19920;-68
2023/01/18 13:49:24;;;;;;;;;;;;;;;;;;5048681;28;19928;-66
2023/01/18 13:51:51;;;;;;;;;;;;;;;;;;5038129;28;19924;-67
2023/01/18 13:54:17;;;;;;;;;;;;;;;;;;5037636;28;19943;-68
2023/01/18 13:56:43;;;;;;;;;;;;;;;;;;5040939;28;20009;-68
2023/01/18 13:59:09;;;;;;;;;;;;;;;;;;5035919;28;20022;-67
2023/01/18 14:01:35;;;;;;;;;;;;;;;;;;5025723;28;19920;-70
2023/01/18 14:04:00;;;;;;;;;;;;;;;;;;5036257;28;19920;-69
2023/01/18 14:06:26;;;;;;;;;;;;;;;;;;5003823;28;19927;-67
2023/01/18 14:08:52;;;;;;;;;;;;;;;;;;5022824;28;20472;-67
2023/01/18 14:11:18;;;;;;;;;;;;;;;;;;5032855;28;19921;-66
2023/01/18 14:13:44;;;;;;;;;;;;;;;;;;5044068;28;19935;-69
2023/01/18 14:16:10;;;;;;;;;;;;;;;;;;5036200;28;20511;-69
2023/01/18 14:18:36;;;;;;;;;;;;;;;;;;5039814;28;20404;-67
2023/01/18 14:21:02;;;;;;;;;;;;;;;;;;5042457;28;19983;-68
2023/01/18 14:23:28;;;;;;;;;;;;;;;;;;5039398;28;19974;-68
2023/01/18 14:25:54;;;;;;;;;;;;;;;;;;5037245;28;20008;-66
2023/01/18 14:28:21;;;;;;;;;;;;;;;;;;5036295;28;20537;-67
2023/01/18 14:30:47;;;;;;;;;;;;;;;;;;5039430;28;19924;-64
2023/01/18 14:33:14;;;;;;;;;;;;;;;;;;5051045;28;20627;-68
2023/01/18 14:35:40;;;;;;;;;;;;;;;;;;5035225;28;20645;-71
2023/01/18 14:38:06;;;;;;;;;;;;;;;;;;5020870;27;19924;-67
2023/01/18 14:40:32;;;;;;;;;;;;;;;;;;5037914;28;19918;-68
2023/01/18 14:42:58;;;;;;;;;;;;;;;;;;5059683;27;19977;-67
2023/01/18 14:45:25;;;;;;;;;;;;;;;;;;5050863;28;20015;-67
2023/01/18 14:47:51;;;;;;;;;;;;;;;;;;5051958;28;19924;-67
2023/01/18 14:50:18;;;;;;;;;;;;;;;;;;5054034;27;20298;-66
2023/01/18 14:52:44;;;;;;;;;;;;;;;;;;5059806;28;19928;-66
2023/01/18 14:55:10;;;;;;;;;;;;;;;;;;5057190;28;19927;-68
2023/01/18 14:57:36;;;;;;;;;;;;;;;;;;5051519;28;19920;-66
2023/01/18 15:00:02;;;;;;;;;;;;;;;;;;5049039;28;20015;-67
2023/01/18 15:02:32;;;;;;;;;;;;;;;;;;5056158;28;19919;-68
2023/01/18 15:04:58;;;;;;;;;;;;;;;;;;5043074;28;20015;-65
2023/01/18 15:07:24;;;;;;;;;;;;;;;;;;5035820;27;19946;-64
2023/01/18 15:09:50;;;;;;;;;;;;;;;;;;5053396;28;19924;-67
2023/01/18 15:12:16;;;;;;;;;;;;;;;;;;5047008;28;19928;-67
2023/01/18 15:14:41;;;;;;;;;;;;;;;;;;5052446;28;19928;-65
2023/01/18 15:17:07;;;;;;;;;;;;;;;;;;5042453;28;20031;-66
2023/01/18 15:19:33;;;;;;;;;;;;;;;;;;5048530;28;20375;-67
2023/01/18 15:22:00;;;;;;;;;;;;;;;;;;5034235;28;20546;-65
2023/01/18 15:24:27;;;;;;;;;;;;;;;;;;5042030;28;19924;-68
2023/01/18 15:26:54;;;;;;;;;;;;;;;;;;5048735;28;19986;-65
2023/01/18 15:29:20;;;;;;;;;;;;;;;;;;5041926;28;20297;-65
2023/01/18 15:31:46;;;;;;;;;;;;;;;;;;5048556;28;19928;-65
2023/01/18 15:34:14;;;;;;;;;;;;;;;;;;5057017;28;19932;-66
2023/01/18 15:36:40;;;;;;;;;;;;;;;;;;5044316;28;20389;-67
2023/01/18 15:39:05;;;;;;;;;;;;;;;;;;5032523;28;21817;-65
2023/01/18 15:41:31;;;;;;;;;;;;;;;;;;5047147;28;19928;-67
2023/01/18 15:43:57;;;;;;;;;;;;;;;;;;5043057;28;19924;-65
2023/01/18 15:46:24;;;;;;;;;;;;;;;;;;5045401;28;20290;-67
2023/01/18 15:48:50;;;;;;;;;;;;;;;;;;5041014;27;20016;-68
2023/01/18 15:51:17;;;;;;;;;;;;;;;;;;5045746;28;19927;-64
2023/01/18 15:53:44;;;;;;;;;;;;;;;;;;5055893;27;19920;-67
2023/01/18 15:56:10;;;;;;;;;;;;;;;;;;5053632;28;19938;-67
2023/01/18 15:58:36;;;;;;;;;;;;;;;;;;5055976;28;20427;-65
2023/01/18 16:01:02;;;;;;;;;;;;;;;;;;5035586;28;19924;-67
2023/01/18 16:03:28;;;;;;;;;;;;;;;;;;5040126;28;19932;-67
2023/01/18 16:05:54;;;;;;;;;;;;;;;;;;5042296;28;19916;-67
2023/01/18 16:08:20;;;;;;;;;;;;;;;;;;5043266;28;19928;-68
2023/01/18 16:10:46;;;;;;;;;;;;;;;;;;5044938;28;20315;-66
2023/01/18 16:13:12;;;;;;;;;;;;;;;;;;5039493;28;20049;-66
2023/01/18 16:15:38;;;;;;;;;;;;;;;;;;5037338;28;20286;-67
2023/01/18 16:18:05;;;;;;;;;;;;;;;;;;5034439;28;19924;-67
2023/01/18 16:20:31;;;;;;;;;;;;;;;;;;5040248;28;20003;-67
2023/01/18 16:22:56;;;;;;;;;;;;;;;;;;5042753;28;19920;-65
2023/01/18 16:25:22;;;;;;;;;;;;;;;;;;5054096;28;20430;-67
2023/01/18 16:27:48;;;;;;;;;;;;;;;;;;5032839;28;20772;-66
2023/01/18 16:30:14;;;;;;;;;;;;;;;;;;5045275;28;19935;-65
2023/01/18 16:32:40;;;;;;;;;;;;;;;;;;5043025;28;19943;-66
2023/01/18 16:35:06;;;;;;;;;;;;;;;;;;5022347;28;19950;-66
2023/01/18 16:37:32;;;;;;;;;;;;;;;;;;5045349;28;19931;-67
2023/01/18 16:39:58;;;;;;;;;;;;;;;;;;5041716;28;20397;-67
2023/01/18 16:42:23;;;;;;;;;;;;;;;;;;5057931;28;19981;-66
2023/01/18 16:44:49;;;;;;;;;;;;;;;;;;5034153;28;20316;-66
2023/01/18 16:47:15;;;;;;;;;;;;;;;;;;5035942;28;20429;-66
2023/01/18 16:49:42;;;;;;;;;;;;;;;;;;5045093;28;20512;-68
2023/01/18 16:52:11;;;;;;;;;;;;;;;;;;5051165;28;20373;-67
2023/01/18 16:54:37;;;;;;;;;;;;;;;;;;5040835;27;19930;-66
2023/01/18 16:57:03;;;;;;;;;;;;;;;;;;5022245;28;20502;-67
2023/01/18 16:59:29;;;;;;;;;;;;;;;;;;4990705;28;20078;-67
2023/01/18 17:01:55;;;;;;;;;;;;;;;;;;5020358;28;20999;-66
2023/01/18 17:04:21;;;;;;;;;;;;;;;;;;5024498;28;19952;-69
2023/01/18 17:06:46;;;;;;;;;;;;;;;;;;5018434;28;19928;-65
2023/01/18 17:09:12;;;;;;;;;;;;;;;;;;5020149;27;19924;-69
2023/01/18 17:11:38;;;;;;;;;;;;;;;;;;4980905;28;20021;-68